createdAt,value
2018-03-24T00:00:04.715Z,23.20
2018-03-24T00:01:04.697Z,23.50
2018-03-24T00:02:04.719Z,21.20
2018-03-24T00:03:04.702Z,25.40
2018-03-24T00:04:04.731Z,23.20
2018-03-24T00:05:04.709Z,26.20
2018-03-24T00:06:04.775Z,22.80
2018-03-24T00:07:04.715Z,22.60
2018-03-24T00:08:04.767Z,23.90
2018-03-24T00:09:04.725Z,23.70
2018-03-24T00:10:04.779Z,24.40
2018-03-24T00:11:04.758Z,22.40
2018-03-24T00:12:04.797Z,23.20
2018-03-24T00:13:04.728Z,20.60
2018-03-24T00:14:04.807Z,20.90
2018-03-24T00:15:04.739Z,21.80
2018-03-24T00:16:04.821Z,21.00
2018-03-24T00:17:04.753Z,22.70
2018-03-24T00:18:04.841Z,23.50
2018-03-24T00:19:04.764Z,22.80
2018-03-24T00:20:04.846Z,22.20
2018-03-24T00:21:04.770Z,20.40
2018-03-24T00:22:04.859Z,22.00
2018-03-24T00:23:04.774Z,23.60
2018-03-24T00:24:04.779Z,22.20
2018-03-24T00:25:04.777Z,23.90
2018-03-24T00:26:04.890Z,21.80
2018-03-24T00:27:04.790Z,19.80
2018-03-24T00:28:04.895Z,20.50
2018-03-24T00:29:04.787Z,21.20
2018-03-24T00:30:04.814Z,22.30
2018-03-24T00:31:04.795Z,21.60
2018-03-24T00:32:04.828Z,22.20
2018-03-24T00:33:04.801Z,21.90
2018-03-24T00:34:04.837Z,22.20
2018-03-24T00:35:04.812Z,21.50
2018-03-24T00:36:04.849Z,21.60
2018-03-24T00:37:04.807Z,22.50
2018-03-24T00:38:04.862Z,23.80
2018-03-24T00:39:04.820Z,21.90
2018-03-24T00:40:04.874Z,22.50
2018-03-24T00:41:04.825Z,24.60
2018-03-24T00:42:05.913Z,23.80
2018-03-24T00:43:04.839Z,20.60
2018-03-24T00:44:04.903Z,26.10
2018-03-24T00:45:04.845Z,25.80
2018-03-24T00:46:04.918Z,25.20
2018-03-24T00:47:04.863Z,23.00
2018-03-24T00:48:04.928Z,21.40
2018-03-24T00:49:04.864Z,21.90
2018-03-24T00:50:04.948Z,23.00
2018-03-24T00:51:04.865Z,24.10
2018-03-24T00:52:04.966Z,23.90
2018-03-24T00:53:04.861Z,25.70
2018-03-24T00:54:04.973Z,24.50
2018-03-24T00:55:04.876Z,22.30
2018-03-24T00:56:04.890Z,22.40
2018-03-24T00:57:04.890Z,22.70
2018-03-24T00:58:04.999Z,23.20
2018-03-24T00:59:04.891Z,21.70
2018-03-24T01:00:04.918Z,21.10
2018-03-24T01:01:04.893Z,24.20
2018-03-24T01:02:04.924Z,22.80
2018-03-24T01:03:04.958Z,23.30
2018-03-24T01:04:04.939Z,23.20
2018-03-24T01:05:04.918Z,23.50
2018-03-24T01:06:04.950Z,20.30
2018-03-24T01:07:04.908Z,23.70
2018-03-24T01:08:04.969Z,22.40
2018-03-24T01:09:04.916Z,23.40
2018-03-24T01:10:05.003Z,20.70
2018-03-24T01:11:04.946Z,26.10
2018-03-24T01:12:04.993Z,22.90
2018-03-24T01:13:04.930Z,22.00
2018-03-24T01:14:05.007Z,22.80
2018-03-24T01:15:04.930Z,24.20
2018-03-24T01:16:05.019Z,24.30
2018-03-24T01:17:04.937Z,21.90
2018-03-24T01:18:05.037Z,21.30
2018-03-24T01:19:04.951Z,22.90
2018-03-24T01:20:05.044Z,22.30
2018-03-24T01:21:04.961Z,22.10
2018-03-24T01:22:05.064Z,20.40
2018-03-24T01:23:04.961Z,24.00
2018-03-24T01:24:05.078Z,23.30
2018-03-24T01:25:04.966Z,21.60
2018-03-24T01:26:04.984Z,23.70
2018-03-24T01:27:04.976Z,23.50
2018-03-24T01:28:05.102Z,23.10
2018-03-24T01:29:04.986Z,22.80
2018-03-24T01:30:05.014Z,24.60
2018-03-24T01:31:04.984Z,25.00
2018-03-24T01:32:05.027Z,25.30
2018-03-24T01:33:04.999Z,25.70
2018-03-24T01:34:05.036Z,24.00
2018-03-24T01:35:05.015Z,24.80
2018-03-24T01:36:05.070Z,25.10
2018-03-24T01:37:05.001Z,24.70
2018-03-24T01:38:05.071Z,22.90
2018-03-24T01:39:05.012Z,23.40
2018-03-24T01:40:05.095Z,21.20
2018-03-24T01:41:05.020Z,22.80
2018-03-24T01:42:05.100Z,23.00
2018-03-24T01:43:05.032Z,24.70
2018-03-24T01:44:05.112Z,21.50
2018-03-24T01:45:05.029Z,19.40
2018-03-24T01:46:05.125Z,23.70
2018-03-24T01:47:05.038Z,22.00
2018-03-24T01:48:05.138Z,22.80
2018-03-24T01:49:05.054Z,20.80
2018-03-24T01:50:05.155Z,23.00
2018-03-24T01:51:05.055Z,18.90
2018-03-24T01:52:05.165Z,23.00
2018-03-24T01:53:05.054Z,19.90
2018-03-24T01:54:05.083Z,19.70
2018-03-24T01:55:05.066Z,20.00
2018-03-24T01:56:05.097Z,20.50
2018-03-24T01:57:05.073Z,23.50
2018-03-24T01:58:05.110Z,21.40
2018-03-24T01:59:05.072Z,18.90
2018-03-24T02:00:05.136Z,21.50
2018-03-24T02:01:05.095Z,21.90
2018-03-24T02:02:05.131Z,22.70
2018-03-24T02:03:05.080Z,22.50
2018-03-24T02:04:05.146Z,21.30
2018-03-24T02:05:05.104Z,21.10
2018-03-24T02:06:05.157Z,20.80
2018-03-24T02:07:05.102Z,22.30
2018-03-24T02:08:05.169Z,19.80
2018-03-24T02:09:05.105Z,18.50
2018-03-24T02:10:05.189Z,19.60
2018-03-24T02:11:05.117Z,18.60
2018-03-24T02:12:05.205Z,17.80
2018-03-24T02:13:05.118Z,18.00
2018-03-24T02:14:06.233Z,20.40
2018-03-24T02:15:05.124Z,19.00
2018-03-24T02:16:05.225Z,19.60
2018-03-24T02:17:05.132Z,18.10
2018-03-24T02:18:05.235Z,18.70
2018-03-24T02:19:05.139Z,17.50
2018-03-24T02:20:05.254Z,18.80
2018-03-24T02:21:05.142Z,18.80
2018-03-24T02:22:05.167Z,20.50
2018-03-24T02:23:05.146Z,20.50
2018-03-24T02:24:05.179Z,22.20
2018-03-24T02:25:05.156Z,20.00
2018-03-24T02:26:05.192Z,16.40
2018-03-24T02:27:05.162Z,19.10
2018-03-24T02:28:05.206Z,18.60
2018-03-24T02:29:05.164Z,17.60
2018-03-24T02:30:05.227Z,18.20
2018-03-24T02:31:05.168Z,20.70
2018-03-24T02:32:05.235Z,18.50
2018-03-24T02:33:05.176Z,17.70
2018-03-24T02:34:05.253Z,18.30
2018-03-24T02:35:05.190Z,17.30
2018-03-24T02:36:05.264Z,20.20
2018-03-24T02:37:05.193Z,19.00
2018-03-24T02:38:05.273Z,19.10
2018-03-24T02:39:05.217Z,18.90
2018-03-24T02:40:05.324Z,18.40
2018-03-24T02:41:05.214Z,17.70
2018-03-24T02:42:05.305Z,21.40
2018-03-24T02:43:05.210Z,20.00
2018-03-24T02:44:06.217Z,18.10
2018-03-24T02:45:05.222Z,19.30
2018-03-24T02:46:05.226Z,18.40
2018-03-24T02:47:05.221Z,21.40
2018-03-24T02:48:05.238Z,22.00
2018-03-24T02:49:05.222Z,17.40
2018-03-24T02:50:05.360Z,18.10
2018-03-24T02:51:05.229Z,18.90
2018-03-24T02:52:05.277Z,18.10
2018-03-24T02:53:05.278Z,19.30
2018-03-24T02:54:05.291Z,23.60
2018-03-24T02:55:05.253Z,19.30
2018-03-24T02:56:05.303Z,19.90
2018-03-24T02:57:05.253Z,20.70
2018-03-24T02:58:05.308Z,20.20
2018-03-24T02:59:05.257Z,24.70
2018-03-24T03:00:05.322Z,20.50
2018-03-24T03:01:05.282Z,20.50
2018-03-24T03:02:05.338Z,20.40
2018-03-24T03:03:05.274Z,19.10
2018-03-24T03:04:05.348Z,21.40
2018-03-24T03:05:05.294Z,20.00
2018-03-24T03:06:05.365Z,19.90
2018-03-24T03:07:05.286Z,21.30
2018-03-24T03:08:05.374Z,21.30
2018-03-24T03:09:05.288Z,20.80
2018-03-24T03:10:05.389Z,20.90
2018-03-24T03:11:05.288Z,20.40
2018-03-24T03:12:05.405Z,21.70
2018-03-24T03:13:05.304Z,19.70
2018-03-24T03:14:06.335Z,21.50
2018-03-24T03:15:05.313Z,23.60
2018-03-24T03:16:05.328Z,19.70
2018-03-24T03:17:05.306Z,25.40
2018-03-24T03:18:05.341Z,20.10
2018-03-24T03:19:05.321Z,24.60
2018-03-24T03:20:05.354Z,24.00
2018-03-24T03:21:05.324Z,21.90
2018-03-24T03:22:05.370Z,22.60
2018-03-24T03:23:05.338Z,19.60
2018-03-24T03:24:05.384Z,22.40
2018-03-24T03:25:05.335Z,22.20
2018-03-24T03:26:05.395Z,22.20
2018-03-24T03:27:05.369Z,24.30
2018-03-24T03:28:05.459Z,24.60
2018-03-24T03:29:05.347Z,21.60
2018-03-24T03:30:05.425Z,21.20
2018-03-24T03:31:05.357Z,29.80
2018-03-24T03:32:05.439Z,25.00
2018-03-24T03:33:05.366Z,21.80
2018-03-24T03:34:05.496Z,24.70
2018-03-24T03:35:05.373Z,23.30
2018-03-24T03:36:05.466Z,25.40
2018-03-24T03:37:05.368Z,24.40
2018-03-24T03:38:05.479Z,25.10
2018-03-24T03:39:05.380Z,24.90
2018-03-24T03:40:05.490Z,25.80
2018-03-24T03:41:05.380Z,25.70
2018-03-24T03:42:06.430Z,23.80
2018-03-24T03:43:05.402Z,25.40
2018-03-24T03:44:05.420Z,25.90
2018-03-24T03:45:05.396Z,24.50
2018-03-24T03:46:05.425Z,24.50
2018-03-24T03:47:05.398Z,24.10
2018-03-24T03:48:05.444Z,25.00
2018-03-24T03:49:05.414Z,25.50
2018-03-24T03:50:05.458Z,24.60
2018-03-24T03:51:05.413Z,27.00
2018-03-24T03:52:05.471Z,23.60
2018-03-24T03:53:05.418Z,26.00
2018-03-24T03:54:05.483Z,25.40
2018-03-24T03:55:05.422Z,25.60
2018-03-24T03:56:05.502Z,25.50
2018-03-24T03:57:05.436Z,24.50
2018-03-24T03:58:05.510Z,25.00
2018-03-24T03:59:05.439Z,26.10
2018-03-24T04:00:05.527Z,27.20
2018-03-24T04:01:05.445Z,24.80
2018-03-24T04:02:05.554Z,27.20
2018-03-24T04:03:05.443Z,26.90
2018-03-24T04:04:05.560Z,30.20
2018-03-24T04:05:05.449Z,28.30
2018-03-24T04:06:05.562Z,29.70
2018-03-24T04:07:05.456Z,26.50
2018-03-24T04:08:05.476Z,25.00
2018-03-24T04:09:05.472Z,25.90
2018-03-24T04:10:05.492Z,26.30
2018-03-24T04:11:05.467Z,26.30
2018-03-24T04:12:05.507Z,24.00
2018-03-24T04:13:05.479Z,24.60
2018-03-24T04:14:05.519Z,27.50
2018-03-24T04:15:05.483Z,30.00
2018-03-24T04:16:05.537Z,25.50
2018-03-24T04:17:05.489Z,26.90
2018-03-24T04:18:05.550Z,27.90
2018-03-24T04:19:05.491Z,29.00
2018-03-24T04:20:05.566Z,25.50
2018-03-24T04:21:05.494Z,25.50
2018-03-24T04:22:05.578Z,27.80
2018-03-24T04:23:05.506Z,26.40
2018-03-24T04:24:05.589Z,26.20
2018-03-24T04:25:05.511Z,26.20
2018-03-24T04:26:05.598Z,29.00
2018-03-24T04:27:05.518Z,28.20
2018-03-24T04:28:05.610Z,27.60
2018-03-24T04:29:05.582Z,29.40
2018-03-24T04:30:05.627Z,29.60
2018-03-24T04:31:05.531Z,28.70
2018-03-24T04:32:05.641Z,28.90
2018-03-24T04:33:05.528Z,26.90
2018-03-24T04:34:05.551Z,27.00
2018-03-24T04:35:05.537Z,29.00
2018-03-24T04:36:05.563Z,30.40
2018-03-24T04:37:05.543Z,28.70
2018-03-24T04:38:05.581Z,30.20
2018-03-24T04:39:05.547Z,30.10
2018-03-24T04:40:05.600Z,29.80
2018-03-24T04:41:05.548Z,28.90
2018-03-24T04:42:05.611Z,33.20
2018-03-24T04:43:05.557Z,32.70
2018-03-24T04:44:05.615Z,29.10
2018-03-24T04:45:05.567Z,33.70
2018-03-24T04:46:05.628Z,32.50
2018-03-24T04:47:05.572Z,31.90
2018-03-24T04:48:05.650Z,28.90
2018-03-24T04:49:05.572Z,28.50
2018-03-24T04:50:05.657Z,32.60
2018-03-24T04:51:05.589Z,32.00
2018-03-24T04:52:05.679Z,28.20
2018-03-24T04:53:05.589Z,30.00
2018-03-24T04:54:05.687Z,27.00
2018-03-24T04:55:05.593Z,29.30
2018-03-24T04:56:05.702Z,29.50
2018-03-24T04:57:05.593Z,31.00
2018-03-24T04:58:05.718Z,28.90
2018-03-24T04:59:05.603Z,32.00
2018-03-24T05:00:05.632Z,24.80
2018-03-24T05:01:05.604Z,29.90
2018-03-24T05:02:05.643Z,29.50
2018-03-24T05:03:05.609Z,30.30
2018-03-24T05:04:06.677Z,28.60
2018-03-24T05:05:05.628Z,32.20
2018-03-24T05:06:05.670Z,27.50
2018-03-24T05:07:05.631Z,29.20
2018-03-24T05:08:05.685Z,31.40
2018-03-24T05:09:05.630Z,27.80
2018-03-24T05:10:05.700Z,26.50
2018-03-24T05:11:05.638Z,26.60
2018-03-24T05:12:05.712Z,26.70
2018-03-24T05:13:05.637Z,26.90
2018-03-24T05:14:05.725Z,27.50
2018-03-24T05:15:05.649Z,28.30
2018-03-24T05:16:05.738Z,29.20
2018-03-24T05:17:05.657Z,27.60
2018-03-24T05:18:05.757Z,28.40
2018-03-24T05:19:05.654Z,23.20
2018-03-24T05:20:05.763Z,26.90
2018-03-24T05:21:05.659Z,26.80
2018-03-24T05:22:05.671Z,27.80
2018-03-24T05:23:05.662Z,24.10
2018-03-24T05:24:05.694Z,26.90
2018-03-24T05:25:05.685Z,28.20
2018-03-24T05:26:05.701Z,29.30
2018-03-24T05:27:05.695Z,27.60
2018-03-24T05:28:05.721Z,28.20
2018-03-24T05:29:05.681Z,28.60
2018-03-24T05:30:05.727Z,29.30
2018-03-24T05:31:05.691Z,26.00
2018-03-24T05:32:05.755Z,31.20
2018-03-24T05:33:05.707Z,27.20
2018-03-24T05:34:05.768Z,29.30
2018-03-24T05:35:05.696Z,28.70
2018-03-24T05:36:05.774Z,28.60
2018-03-24T05:37:05.701Z,29.00
2018-03-24T05:38:05.780Z,28.00
2018-03-24T05:39:05.719Z,31.60
2018-03-24T05:40:05.807Z,27.60
2018-03-24T05:41:05.719Z,27.80
2018-03-24T05:42:05.818Z,32.50
2018-03-24T05:43:05.724Z,26.80
2018-03-24T05:44:05.825Z,32.60
2018-03-24T05:45:05.730Z,28.30
2018-03-24T05:46:05.840Z,26.70
2018-03-24T05:47:05.726Z,29.00
2018-03-24T05:48:05.756Z,28.20
2018-03-24T05:49:05.738Z,30.10
2018-03-24T05:50:05.786Z,29.90
2018-03-24T05:51:05.739Z,27.50
2018-03-24T05:52:05.784Z,30.10
2018-03-24T05:53:05.748Z,28.90
2018-03-24T05:54:06.814Z,28.00
2018-03-24T05:55:05.744Z,30.70
2018-03-24T05:56:05.807Z,26.70
2018-03-24T05:57:05.758Z,31.00
2018-03-24T05:58:06.845Z,30.80
2018-03-24T05:59:05.767Z,29.50
2018-03-24T06:00:05.836Z,31.00
2018-03-24T06:01:05.763Z,30.30
2018-03-24T06:02:05.852Z,27.20
2018-03-24T06:03:05.773Z,30.00
2018-03-24T06:04:05.874Z,30.90
2018-03-24T06:05:05.779Z,32.30
2018-03-24T06:06:05.934Z,27.20
2018-03-24T06:07:05.784Z,30.00
2018-03-24T06:08:05.887Z,29.70
2018-03-24T06:09:05.786Z,31.50
2018-03-24T06:10:05.903Z,32.70
2018-03-24T06:11:05.788Z,32.60
2018-03-24T06:12:05.812Z,29.30
2018-03-24T06:13:05.794Z,26.10
2018-03-24T06:14:05.825Z,29.30
2018-03-24T06:15:05.805Z,28.70
2018-03-24T06:16:05.842Z,29.50
2018-03-24T06:17:05.807Z,30.70
2018-03-24T06:18:05.852Z,29.20
2018-03-24T06:19:05.830Z,31.50
2018-03-24T06:20:05.869Z,33.90
2018-03-24T06:21:05.815Z,34.20
2018-03-24T06:22:05.931Z,33.90
2018-03-24T06:23:05.824Z,31.50
2018-03-24T06:24:05.910Z,33.10
2018-03-24T06:25:05.839Z,32.80
2018-03-24T06:26:05.908Z,31.90
2018-03-24T06:27:05.838Z,34.10
2018-03-24T06:28:05.918Z,30.00
2018-03-24T06:29:05.839Z,34.60
2018-03-24T06:30:05.931Z,29.60
2018-03-24T06:31:05.855Z,31.30
2018-03-24T06:32:05.950Z,32.20
2018-03-24T06:33:05.848Z,31.30
2018-03-24T06:34:05.957Z,31.60
2018-03-24T06:35:05.863Z,34.50
2018-03-24T06:36:05.879Z,28.40
2018-03-24T06:37:05.869Z,29.60
2018-03-24T06:38:06.019Z,28.70
2018-03-24T06:39:05.881Z,31.70
2018-03-24T06:40:05.898Z,28.60
2018-03-24T06:41:05.873Z,30.10
2018-03-24T06:42:05.911Z,32.00
2018-03-24T06:43:05.876Z,33.40
2018-03-24T06:44:05.929Z,32.70
2018-03-24T06:45:05.875Z,32.80
2018-03-24T06:46:05.942Z,31.80
2018-03-24T06:47:05.881Z,29.00
2018-03-24T06:48:06.983Z,32.10
2018-03-24T06:49:05.892Z,33.10
2018-03-24T06:50:06.993Z,29.40
2018-03-24T06:51:05.925Z,32.60
2018-03-24T06:52:05.996Z,37.10
2018-03-24T06:53:05.899Z,34.50
2018-03-24T06:54:05.994Z,36.90
2018-03-24T06:55:05.950Z,33.70
2018-03-24T06:56:06.005Z,33.90
2018-03-24T06:57:05.916Z,31.80
2018-03-24T06:58:06.023Z,36.80
2018-03-24T06:59:05.927Z,34.30
2018-03-24T07:00:05.928Z,33.70
2018-03-24T07:01:05.925Z,33.90
2018-03-24T07:02:06.049Z,32.80
2018-03-24T07:03:05.935Z,35.60
2018-03-24T07:04:05.958Z,33.40
2018-03-24T07:05:05.931Z,30.70
2018-03-24T07:06:05.983Z,30.10
2018-03-24T07:07:05.939Z,31.30
2018-03-24T07:08:05.983Z,30.60
2018-03-24T07:09:05.943Z,30.50
2018-03-24T07:10:05.998Z,30.70
2018-03-24T07:11:05.951Z,27.70
2018-03-24T07:12:06.018Z,29.70
2018-03-24T07:13:05.947Z,29.20
2018-03-24T07:14:06.026Z,28.10
2018-03-24T07:15:05.960Z,28.60
2018-03-24T07:16:06.043Z,27.00
2018-03-24T07:17:05.959Z,29.40
2018-03-24T07:18:06.057Z,26.10
2018-03-24T07:19:05.966Z,29.80
2018-03-24T07:20:06.071Z,28.10
2018-03-24T07:21:05.973Z,26.00
2018-03-24T07:22:06.089Z,30.50
2018-03-24T07:23:05.975Z,26.60
2018-03-24T07:24:06.141Z,27.80
2018-03-24T07:25:05.986Z,28.80
2018-03-24T07:26:06.016Z,27.00
2018-03-24T07:27:05.985Z,28.20
2018-03-24T07:28:06.024Z,27.80
2018-03-24T07:29:05.996Z,28.50
2018-03-24T07:30:06.037Z,26.30
2018-03-24T07:31:06.030Z,27.10
2018-03-24T07:32:06.053Z,26.60
2018-03-24T07:33:05.997Z,27.60
2018-03-24T07:34:06.063Z,27.00
2018-03-24T07:35:06.021Z,26.30
2018-03-24T07:36:06.074Z,26.00
2018-03-24T07:37:06.028Z,26.70
2018-03-24T07:38:06.097Z,28.60
2018-03-24T07:39:06.029Z,28.50
2018-03-24T07:40:06.103Z,25.70
2018-03-24T07:41:06.017Z,25.00
2018-03-24T07:42:07.053Z,24.80
2018-03-24T07:43:06.065Z,27.50
2018-03-24T07:44:06.183Z,29.70
2018-03-24T07:45:06.089Z,32.40
2018-03-24T07:46:06.191Z,29.20
2018-03-24T07:47:06.060Z,26.80
2018-03-24T07:48:06.107Z,25.40
2018-03-24T07:49:06.041Z,24.50
2018-03-24T07:50:06.075Z,26.90
2018-03-24T07:51:06.057Z,26.00
2018-03-24T07:52:06.081Z,26.70
2018-03-24T07:53:06.080Z,28.80
2018-03-24T07:54:06.106Z,25.40
2018-03-24T07:55:06.056Z,26.80
2018-03-24T07:56:06.156Z,29.30
2018-03-24T07:57:06.060Z,25.90
2018-03-24T07:58:06.169Z,24.80
2018-03-24T07:59:06.073Z,23.30
2018-03-24T08:00:06.082Z,26.10
2018-03-24T08:01:06.076Z,25.10
2018-03-24T08:02:06.098Z,24.80
2018-03-24T08:03:06.083Z,26.00
2018-03-24T08:04:06.109Z,25.50
2018-03-24T08:05:06.089Z,26.80
2018-03-24T08:06:06.120Z,24.90
2018-03-24T08:07:06.112Z,24.20
2018-03-24T08:08:07.157Z,24.40
2018-03-24T08:09:06.098Z,26.30
2018-03-24T08:10:06.154Z,26.40
2018-03-24T08:11:06.099Z,27.00
2018-03-24T08:12:06.164Z,25.60
2018-03-24T08:13:06.140Z,25.30
2018-03-24T08:14:06.192Z,25.00
2018-03-24T08:15:06.113Z,25.70
2018-03-24T08:16:06.203Z,27.60
2018-03-24T08:17:06.119Z,23.90
2018-03-24T08:18:06.220Z,22.00
2018-03-24T08:19:06.126Z,24.50
2018-03-24T08:20:06.238Z,23.70
2018-03-24T08:21:06.125Z,24.40
2018-03-24T08:22:06.157Z,24.80
2018-03-24T08:23:06.129Z,25.00
2018-03-24T08:24:06.260Z,23.90
2018-03-24T08:25:06.134Z,22.90
2018-03-24T08:26:06.169Z,26.50
2018-03-24T08:27:06.139Z,23.60
2018-03-24T08:28:06.180Z,27.10
2018-03-24T08:29:06.164Z,25.40
2018-03-24T08:30:06.201Z,26.90
2018-03-24T08:31:06.156Z,25.50
2018-03-24T08:32:06.212Z,26.30
2018-03-24T08:33:06.213Z,25.20
2018-03-24T08:34:07.253Z,27.10
2018-03-24T08:35:06.171Z,25.40
2018-03-24T08:36:07.268Z,24.50
2018-03-24T08:37:06.170Z,25.70
2018-03-24T08:38:06.251Z,24.30
2018-03-24T08:39:06.189Z,26.70
2018-03-24T08:40:06.262Z,24.40
2018-03-24T08:41:06.184Z,24.20
2018-03-24T08:42:06.279Z,25.40
2018-03-24T08:43:06.193Z,28.00
2018-03-24T08:44:06.293Z,28.10
2018-03-24T08:45:06.194Z,24.00
2018-03-24T08:46:06.205Z,25.70
2018-03-24T08:47:06.201Z,25.20
2018-03-24T08:48:06.205Z,24.10
2018-03-24T08:49:06.203Z,24.70
2018-03-24T08:50:06.261Z,25.60
2018-03-24T08:51:06.218Z,28.20
2018-03-24T08:52:06.253Z,26.90
2018-03-24T08:53:06.217Z,28.20
2018-03-24T08:54:06.221Z,23.20
2018-03-24T08:55:06.228Z,26.20
2018-03-24T08:56:06.230Z,26.30
2018-03-24T08:57:06.236Z,25.20
2018-03-24T08:58:06.251Z,25.70
2018-03-24T08:59:06.242Z,24.70
2018-03-24T09:00:06.247Z,30.90
2018-03-24T09:01:06.267Z,26.50
2018-03-24T09:02:06.270Z,25.70
2018-03-24T09:03:06.286Z,25.60
2018-03-24T09:04:06.272Z,24.80
2018-03-24T09:05:06.328Z,27.20
2018-03-24T09:06:06.332Z,26.50
2018-03-24T09:07:06.270Z,30.50
2018-03-24T09:08:06.279Z,25.10
2018-03-24T09:09:06.281Z,24.70
2018-03-24T09:10:06.283Z,28.10
2018-03-24T09:11:06.374Z,25.60
2018-03-24T09:12:06.289Z,24.60
2018-03-24T09:13:06.320Z,24.80
2018-03-24T09:14:06.300Z,24.90
2018-03-24T09:15:06.305Z,22.40
2018-03-24T09:16:06.306Z,26.10
2018-03-24T09:17:06.312Z,24.00
2018-03-24T09:18:06.312Z,25.90
2018-03-24T09:19:06.320Z,23.10
2018-03-24T09:20:06.340Z,21.70
2018-03-24T09:21:06.329Z,21.50
2018-03-24T09:22:06.337Z,20.30
2018-03-24T09:23:06.332Z,20.40
2018-03-24T09:24:06.338Z,20.70
2018-03-24T09:25:06.340Z,20.90
2018-03-24T09:26:06.366Z,23.50
2018-03-24T09:27:06.355Z,21.20
2018-03-24T09:28:06.377Z,22.10
2018-03-24T09:29:06.355Z,22.20
2018-03-24T09:30:06.393Z,21.70
2018-03-24T09:31:06.365Z,23.00
2018-03-24T09:32:06.408Z,18.70
2018-03-24T09:33:06.373Z,22.40
2018-03-24T09:34:06.417Z,22.80
2018-03-24T09:35:06.393Z,21.00
2018-03-24T09:36:06.425Z,23.10
2018-03-24T09:37:06.397Z,21.00
2018-03-24T09:38:06.443Z,23.50
2018-03-24T09:39:06.400Z,23.00
2018-03-24T09:40:06.467Z,22.80
2018-03-24T09:41:06.411Z,19.50
2018-03-24T09:42:06.471Z,22.50
2018-03-24T09:43:06.415Z,21.30
2018-03-24T09:44:06.478Z,19.80
2018-03-24T09:45:06.426Z,20.60
2018-03-24T09:46:06.500Z,20.10
2018-03-24T09:47:06.434Z,22.70
2018-03-24T09:48:07.533Z,23.50
2018-03-24T09:49:06.449Z,22.20
2018-03-24T09:50:06.524Z,22.60
2018-03-24T09:51:06.459Z,22.30
2018-03-24T09:52:06.535Z,22.00
2018-03-24T09:53:06.515Z,20.50
2018-03-24T09:54:06.568Z,19.30
2018-03-24T09:55:06.477Z,23.00
2018-03-24T09:56:06.565Z,21.40
2018-03-24T09:57:06.483Z,19.50
2018-03-24T09:58:06.577Z,19.60
2018-03-24T09:59:06.498Z,20.90
2018-03-24T10:00:06.593Z,21.30
2018-03-24T10:01:06.500Z,24.90
2018-03-24T10:02:06.611Z,19.70
2018-03-24T10:03:06.512Z,20.60
2018-03-24T10:04:06.620Z,18.70
2018-03-24T10:05:06.515Z,19.70
2018-03-24T10:06:06.634Z,22.50
2018-03-24T10:07:06.536Z,20.40
2018-03-24T10:08:06.545Z,20.30
2018-03-24T10:09:06.537Z,21.10
2018-03-24T10:10:06.557Z,21.10
2018-03-24T10:11:06.543Z,23.20
2018-03-24T10:12:06.593Z,20.50
2018-03-24T10:13:06.546Z,22.50
2018-03-24T10:14:06.591Z,21.40
2018-03-24T10:15:06.561Z,18.80
2018-03-24T10:16:06.598Z,20.00
2018-03-24T10:17:06.565Z,19.40
2018-03-24T10:18:06.615Z,20.80
2018-03-24T10:19:06.570Z,19.40
2018-03-24T10:20:06.626Z,21.20
2018-03-24T10:21:06.585Z,20.20
2018-03-24T10:22:06.640Z,21.40
2018-03-24T10:23:06.590Z,22.90
2018-03-24T10:24:06.651Z,21.50
2018-03-24T10:25:06.600Z,21.10
2018-03-24T10:26:06.665Z,19.10
2018-03-24T10:27:06.615Z,18.90
2018-03-24T10:28:06.678Z,17.50
2018-03-24T10:29:06.623Z,18.90
2018-03-24T10:30:06.695Z,19.00
2018-03-24T10:31:06.636Z,18.80
2018-03-24T10:32:06.710Z,17.60
2018-03-24T10:33:06.636Z,21.00
2018-03-24T10:34:06.720Z,16.90
2018-03-24T10:35:06.647Z,18.60
2018-03-24T10:36:07.757Z,16.40
2018-03-24T10:37:06.654Z,18.60
2018-03-24T10:38:07.770Z,17.20
2018-03-24T10:39:06.664Z,19.10
2018-03-24T10:40:06.761Z,17.20
2018-03-24T10:41:06.674Z,20.20
2018-03-24T10:42:06.688Z,17.50
2018-03-24T10:43:06.740Z,18.20
2018-03-24T10:44:07.713Z,16.90
2018-03-24T10:45:06.695Z,17.20
2018-03-24T10:46:06.816Z,18.30
2018-03-24T10:47:06.708Z,20.50
2018-03-24T10:48:06.709Z,17.00
2018-03-24T10:49:06.716Z,18.30
2018-03-24T10:50:06.739Z,18.60
2018-03-24T10:51:06.723Z,18.80
2018-03-24T10:52:06.732Z,16.70
2018-03-24T10:53:06.732Z,16.10
2018-03-24T10:54:06.767Z,16.50
2018-03-24T10:55:06.769Z,18.50
2018-03-24T10:56:06.750Z,17.20
2018-03-24T10:57:06.757Z,19.70
2018-03-24T10:58:06.770Z,19.40
2018-03-24T10:59:06.766Z,18.00
2018-03-24T11:00:06.774Z,18.50
2018-03-24T11:01:06.783Z,16.70
2018-03-24T11:02:06.785Z,18.10
2018-03-24T11:03:06.793Z,17.70
2018-03-24T11:04:06.793Z,19.30
2018-03-24T11:05:06.795Z,18.70
2018-03-24T11:06:06.803Z,16.60
2018-03-24T11:07:06.810Z,18.10
2018-03-24T11:08:06.818Z,18.50
2018-03-24T11:09:06.821Z,16.10
2018-03-24T11:10:06.828Z,12.50
2018-03-24T11:11:06.849Z,13.60
2018-03-24T11:12:06.844Z,13.40
2018-03-24T11:13:06.839Z,15.20
2018-03-24T11:14:06.870Z,11.80
2018-03-24T11:15:06.845Z,13.90
2018-03-24T11:16:06.856Z,13.10
2018-03-24T11:17:06.852Z,13.80
2018-03-24T11:18:06.862Z,12.50
2018-03-24T11:19:06.864Z,12.70
2018-03-24T11:20:06.896Z,13.40
2018-03-24T11:21:06.939Z,13.50
2018-03-24T11:22:06.874Z,15.90
2018-03-24T11:23:06.951Z,13.50
2018-03-24T11:24:06.885Z,14.50
2018-03-24T11:25:06.967Z,13.80
2018-03-24T11:26:06.908Z,13.60
2018-03-24T11:27:06.975Z,13.80
2018-03-24T11:28:06.914Z,14.20
2018-03-24T11:29:06.996Z,13.20
2018-03-24T11:30:06.929Z,14.00
2018-03-24T11:31:08.949Z,13.80
2018-03-24T11:32:06.934Z,15.30
2018-03-24T11:33:07.044Z,14.40
2018-03-24T11:34:06.948Z,12.70
2018-03-24T11:35:07.030Z,15.30
2018-03-24T11:36:06.956Z,14.60
2018-03-24T11:37:07.049Z,15.70
2018-03-24T11:38:06.967Z,14.40
2018-03-24T11:39:07.152Z,13.90
2018-03-24T11:40:06.991Z,17.10
2018-03-24T11:41:07.078Z,16.20
2018-03-24T11:42:06.989Z,15.10
2018-03-24T11:43:07.096Z,16.40
2018-03-24T11:44:07.005Z,19.10
2018-03-24T11:45:07.110Z,15.60
2018-03-24T11:46:07.036Z,16.10
2018-03-24T11:47:07.060Z,15.00
2018-03-24T11:48:07.030Z,15.50
2018-03-24T11:49:08.039Z,15.40
2018-03-24T11:50:07.037Z,14.90
2018-03-24T11:51:07.100Z,15.70
2018-03-24T11:52:07.056Z,16.20
2018-03-24T11:53:07.054Z,16.40
2018-03-24T11:54:07.072Z,14.70
2018-03-24T11:55:07.074Z,16.10
2018-03-24T11:56:07.099Z,19.60
2018-03-24T11:57:07.073Z,17.70
2018-03-24T11:58:07.071Z,16.30
2018-03-24T11:59:07.081Z,17.90
2018-03-24T12:00:07.086Z,18.90
2018-03-24T12:01:07.093Z,17.50
2018-03-24T12:02:07.095Z,14.10
2018-03-24T12:03:07.108Z,15.80
2018-03-24T12:04:07.104Z,15.50
2018-03-24T12:05:07.110Z,17.50
2018-03-24T12:06:07.122Z,16.40
2018-03-24T12:07:07.131Z,15.50
2018-03-24T12:08:07.134Z,16.60
2018-03-24T12:09:07.144Z,15.60
2018-03-24T12:10:07.140Z,17.60
2018-03-24T12:11:07.149Z,14.90
2018-03-24T12:12:07.147Z,16.10
2018-03-24T12:13:07.168Z,15.50
2018-03-24T12:14:07.161Z,15.30
2018-03-24T12:15:07.188Z,15.90
2018-03-24T12:16:07.163Z,16.10
2018-03-24T12:17:07.178Z,19.80
2018-03-24T12:18:07.186Z,20.20
2018-03-24T12:19:07.184Z,17.00
2018-03-24T12:20:07.188Z,17.70
2018-03-24T12:21:07.292Z,23.80
2018-03-24T12:22:07.197Z,17.80
2018-03-24T12:23:07.324Z,15.10
2018-03-24T12:24:07.214Z,15.50
2018-03-24T12:25:07.324Z,18.50
2018-03-24T12:26:07.239Z,18.30
2018-03-24T12:27:07.336Z,15.50
2018-03-24T12:28:07.298Z,20.10
2018-03-24T12:29:07.363Z,21.30
2018-03-24T12:30:07.240Z,17.00
2018-03-24T12:31:07.377Z,18.80
2018-03-24T12:32:07.254Z,17.20
2018-03-24T12:33:07.277Z,16.50
2018-03-24T12:34:07.261Z,16.60
2018-03-24T12:35:07.285Z,15.80
2018-03-24T12:36:07.270Z,17.70
2018-03-24T12:37:07.295Z,17.40
2018-03-24T12:38:07.292Z,15.60
2018-03-24T12:39:07.314Z,15.60
2018-03-24T12:40:07.299Z,15.50
2018-03-24T12:41:07.333Z,19.10
2018-03-24T12:42:07.301Z,18.60
2018-03-24T12:43:07.366Z,15.60
2018-03-24T12:44:07.315Z,18.10
2018-03-24T12:45:07.354Z,14.50
2018-03-24T12:46:07.328Z,17.30
2018-03-24T12:47:07.370Z,16.80
2018-03-24T12:48:07.341Z,17.90
2018-03-24T12:49:07.383Z,17.10
2018-03-24T12:50:07.358Z,20.10
2018-03-24T12:51:07.391Z,16.00
2018-03-24T12:52:07.360Z,17.60